createdAt,value
2023-12-09T00:01:48.839Z,29.12
2023-12-09T00:04:53.027Z,24.90
2023-12-09T00:08:04.251Z,29.80
2023-12-09T00:11:10.287Z,23.80
2023-12-09T00:14:14.854Z,26.55
2023-12-09T00:17:18.998Z,25.83
2023-12-09T00:20:27.234Z,24.35
2023-12-09T00:23:32.035Z,27.62
2023-12-09T00:26:39.374Z,25.00
2023-12-09T00:29:44.969Z,29.48
2023-12-09T00:32:48.564Z,26.80
2023-12-09T00:35:52.242Z,26.48
2023-12-09T00:38:59.195Z,29.73
2023-12-09T00:42:06.295Z,26.23
2023-12-09T00:45:10.334Z,25.92
2023-12-09T00:48:14.300Z,28.27
2023-12-09T00:51:17.961Z,27.55
2023-12-09T00:54:25.081Z,27.80
2023-12-09T00:57:30.880Z,25.88
2023-12-09T01:00:40.067Z,27.60
2023-12-09T01:03:43.554Z,27.62
2023-12-09T01:06:47.312Z,28.00
2023-12-09T01:09:53.564Z,28.40
2023-12-09T01:12:56.770Z,31.00
2023-12-09T01:16:00.664Z,27.20
2023-12-09T01:19:04.228Z,32.00
2023-12-09T01:22:40.143Z,31.05
2023-12-09T01:25:45.646Z,28.87
2023-12-09T01:28:49.952Z,31.17
2023-12-09T01:32:14.501Z,26.55
2023-12-09T01:35:20.177Z,27.48
2023-12-09T01:38:47.299Z,32.40
2023-12-09T01:42:14.825Z,26.02
2023-12-09T01:45:24.550Z,29.20
2023-12-09T01:48:31.131Z,25.62
2023-12-09T01:51:37.117Z,25.05
2023-12-09T01:54:40.636Z,26.70
2023-12-09T01:58:11.725Z,25.37
2023-12-09T02:01:15.439Z,27.90
2023-12-09T02:04:46.493Z,24.75
2023-12-09T02:07:49.949Z,25.40
2023-12-09T02:11:18.891Z,28.65
2023-12-09T02:14:54.499Z,24.75
2023-12-09T02:18:02.850Z,27.00
2023-12-09T02:21:08.109Z,26.58
2023-12-09T02:24:14.126Z,26.12
2023-12-09T02:27:55.449Z,22.83
2023-12-09T02:31:27.797Z,25.25
2023-12-09T02:34:32.760Z,23.73
2023-12-09T02:37:39.249Z,21.42
2023-12-09T02:40:45.866Z,22.58
2023-12-09T02:43:51.110Z,25.00
2023-12-09T02:46:57.891Z,26.55
2023-12-09T02:50:01.413Z,24.23
2023-12-09T02:53:06.775Z,25.42
2023-12-09T02:56:12.916Z,26.27
2023-12-09T02:59:16.189Z,22.40
2023-12-09T03:02:20.007Z,23.33
2023-12-09T03:05:24.092Z,25.02
2023-12-09T03:08:31.315Z,28.10
2023-12-09T03:11:34.691Z,27.48
2023-12-09T03:14:42.076Z,25.67
2023-12-09T03:17:46.432Z,26.08
2023-12-09T03:20:53.449Z,23.83
2023-12-09T03:24:16.026Z,28.42
2023-12-09T03:27:22.808Z,26.20
2023-12-09T03:33:33.329Z,25.17
2023-12-09T03:36:36.373Z,27.65
2023-12-09T03:39:40.333Z,27.73
2023-12-09T03:42:45.155Z,27.80
2023-12-09T03:45:48.897Z,26.12
2023-12-09T03:48:53.009Z,28.73
2023-12-09T03:51:59.888Z,26.33
2023-12-09T03:55:05.480Z,28.38
2023-12-09T03:58:18.901Z,23.50
2023-12-09T04:01:26.305Z,24.45
2023-12-09T04:04:31.835Z,25.20
2023-12-09T04:07:37.916Z,28.10
2023-12-09T04:10:45.982Z,26.87
2023-12-09T04:13:50.555Z,25.25
2023-12-09T04:16:56.117Z,26.50
2023-12-09T04:20:01.838Z,26.40
2023-12-09T04:23:08.940Z,25.12
2023-12-09T04:26:14.266Z,27.70
2023-12-09T04:29:21.418Z,27.13
2023-12-09T04:32:25.005Z,29.92
2023-12-09T04:35:28.811Z,27.52
2023-12-09T04:38:34.060Z,28.27
2023-12-09T04:41:40.984Z,28.00
2023-12-09T04:44:47.078Z,25.42
2023-12-09T04:47:52.592Z,25.62
2023-12-09T04:52:00.308Z,25.97
2023-12-09T04:55:06.590Z,25.30
2023-12-09T04:58:33.587Z,25.20
2023-12-09T05:01:38.215Z,25.45
2023-12-09T05:05:01.012Z,25.37
2023-12-09T05:08:05.615Z,27.75
2023-12-09T05:11:11.559Z,26.23
2023-12-09T05:14:16.060Z,29.90
2023-12-09T05:17:19.448Z,26.40
2023-12-09T05:20:45.863Z,29.35
2023-12-09T05:23:49.178Z,30.40
2023-12-09T05:26:53.321Z,26.73
2023-12-09T05:33:07.872Z,25.23
2023-12-09T05:36:39.630Z,27.08
2023-12-09T05:39:44.203Z,31.92
2023-12-09T05:42:51.281Z,28.52
2023-12-09T05:46:00.700Z,28.00
2023-12-09T05:50:30.653Z,27.00
2023-12-09T05:53:35.106Z,27.80
2023-12-09T05:57:00.079Z,24.67
2023-12-09T06:00:06.645Z,30.00
2023-12-09T06:03:10.318Z,29.80
2023-12-09T06:06:16.532Z,31.30
2023-12-09T06:09:24.399Z,25.50
2023-12-09T06:12:29.259Z,31.27
2023-12-09T06:15:33.935Z,29.48
2023-12-09T06:18:37.428Z,27.45
2023-12-09T06:21:44.000Z,31.98
2023-12-09T06:24:54.568Z,27.05
2023-12-09T06:28:20.137Z,31.83
2023-12-09T06:31:43.295Z,29.05
2023-12-09T06:34:47.409Z,29.30
2023-12-09T06:37:50.854Z,29.85
2023-12-09T06:41:05.130Z,28.17
2023-12-09T06:44:08.466Z,24.50
2023-12-09T06:47:34.624Z,29.77
2023-12-09T06:51:09.773Z,26.55
2023-12-09T06:54:15.166Z,30.73
2023-12-09T06:57:19.087Z,35.15
2023-12-09T07:00:23.231Z,30.75
2023-12-09T07:03:49.932Z,29.60
2023-12-09T07:07:18.364Z,26.70
2023-12-09T07:10:27.300Z,30.52
2023-12-09T07:13:34.998Z,28.20
2023-12-09T07:16:39.503Z,28.52
2023-12-09T07:19:45.868Z,32.25
2023-12-09T07:23:08.968Z,32.08
2023-12-09T07:26:13.634Z,28.85
2023-12-09T07:29:20.038Z,31.92
2023-12-09T07:32:52.224Z,33.75
2023-12-09T07:40:14.229Z,32.53
2023-12-09T07:43:18.382Z,33.05
2023-12-09T07:46:22.859Z,42.13
2023-12-09T07:49:26.371Z,48.40
2023-12-09T07:52:30.712Z,38.92
2023-12-09T07:55:41.720Z,34.78
2023-12-09T07:58:47.281Z,29.02
2023-12-09T08:01:53.686Z,34.22
2023-12-09T08:04:57.021Z,32.08
2023-12-09T08:08:01.123Z,34.42
2023-12-09T08:11:10.261Z,29.17
2023-12-09T08:14:16.447Z,29.83
2023-12-09T08:17:40.567Z,31.55
2023-12-09T08:20:51.930Z,33.58
2023-12-09T08:23:57.307Z,37.70
2023-12-09T08:27:00.568Z,36.40
2023-12-09T08:30:07.658Z,32.65
2023-12-09T08:33:21.028Z,34.50
2023-12-09T08:39:28.149Z,33.55
2023-12-09T08:42:31.875Z,32.30
2023-12-09T08:45:35.624Z,30.90
2023-12-09T08:48:39.671Z,37.72
2023-12-09T08:51:47.539Z,34.95
2023-12-09T08:54:53.848Z,32.72
2023-12-09T08:57:59.856Z,33.47
2023-12-09T09:01:29.860Z,33.33
2023-12-09T09:04:58.314Z,33.13
2023-12-09T09:08:22.312Z,33.58
2023-12-09T09:11:28.942Z,35.08
2023-12-09T09:14:35.128Z,33.55
2023-12-09T09:17:41.423Z,33.17
2023-12-09T09:20:47.192Z,26.77
2023-12-09T09:23:50.286Z,42.03
2023-12-09T09:27:00.095Z,34.15
2023-12-09T09:30:05.288Z,31.87
2023-12-09T09:33:16.008Z,34.08
2023-12-09T09:36:20.517Z,36.45
2023-12-09T09:39:44.504Z,36.92
2023-12-09T09:43:24.963Z,37.83
2023-12-09T09:46:50.350Z,37.08
2023-12-09T09:50:00.532Z,36.88
2023-12-09T09:53:13.543Z,44.85
2023-12-09T09:56:36.533Z,46.90
2023-12-09T09:59:44.840Z,38.30
2023-12-09T10:02:50.983Z,38.28
2023-12-09T10:09:50.863Z,37.63
2023-12-09T10:13:17.151Z,37.45
2023-12-09T10:16:40.264Z,35.30
2023-12-09T10:19:56.184Z,35.30
2023-12-09T10:23:01.594Z,33.60
2023-12-09T10:26:09.252Z,37.05
2023-12-09T10:29:18.015Z,45.17
2023-12-09T10:32:54.110Z,38.80
2023-12-09T10:35:58.377Z,34.15
2023-12-09T10:39:01.602Z,42.25
2023-12-09T10:42:05.845Z,39.60
2023-12-09T10:45:09.498Z,39.03
2023-12-09T10:48:16.525Z,39.40
2023-12-09T10:51:42.192Z,36.67
2023-12-09T10:54:47.373Z,47.00
2023-12-09T10:57:51.927Z,43.05
2023-12-09T11:00:59.256Z,37.47
2023-12-09T11:04:10.439Z,38.63
2023-12-09T11:07:16.165Z,36.55
2023-12-09T11:10:20.290Z,46.17
2023-12-09T11:13:30.894Z,37.85
2023-12-09T11:16:34.765Z,41.90
2023-12-09T11:20:11.875Z,34.72
2023-12-09T11:23:18.238Z,38.60
2023-12-09T11:26:31.622Z,35.90
2023-12-09T11:29:37.464Z,44.50
2023-12-09T11:33:00.829Z,49.05
2023-12-09T11:36:08.910Z,42.65
2023-12-09T11:39:22.299Z,42.92
2023-12-09T11:42:26.666Z,50.85
2023-12-09T11:45:32.970Z,38.03
2023-12-09T11:48:37.795Z,35.50
2023-12-09T11:51:40.849Z,39.25
2023-12-09T11:54:46.793Z,39.03
2023-12-09T11:57:51.836Z,34.92
2023-12-09T12:01:15.041Z,38.33
2023-12-09T12:04:18.383Z,33.78
2023-12-09T12:07:21.027Z,37.33
2023-12-09T12:10:27.507Z,39.95
2023-12-09T12:13:33.774Z,35.95
2023-12-09T12:16:43.649Z,37.35
2023-12-09T12:20:11.441Z,37.15
2023-12-09T12:23:26.446Z,40.60
2023-12-09T12:26:40.417Z,39.67
2023-12-09T12:30:05.403Z,36.47
2023-12-09T12:33:09.940Z,41.95
2023-12-09T12:36:15.068Z,42.50
2023-12-09T12:39:18.402Z,41.75
2023-12-09T12:42:21.710Z,44.25
2023-12-09T12:45:28.698Z,36.88
2023-12-09T12:48:36.922Z,37.70
2023-12-09T12:52:12.222Z,36.00
2023-12-09T12:55:17.692Z,35.30
2023-12-09T12:58:21.479Z,38.80
2023-12-09T13:01:44.269Z,43.03
2023-12-09T13:05:08.120Z,34.80
2023-12-09T13:08:11.495Z,31.15
2023-12-09T13:11:17.660Z,41.90
2023-12-09T13:14:43.701Z,37.67
2023-12-09T13:17:46.548Z,34.25
2023-12-09T13:20:51.669Z,39.30
2023-12-09T13:23:54.349Z,40.33
2023-12-09T13:26:58.642Z,48.33
2023-12-09T13:30:07.785Z,38.50
2023-12-09T13:33:11.052Z,40.50
2023-12-09T13:36:14.181Z,43.35
2023-12-09T13:39:17.619Z,46.00
2023-12-09T13:42:23.253Z,41.10
2023-12-09T13:45:27.895Z,39.08
2023-12-09T13:48:32.188Z,41.60
2023-12-09T13:51:59.726Z,39.08
2023-12-09T13:55:06.210Z,39.38
2023-12-09T13:58:09.722Z,38.83
2023-12-09T14:01:32.696Z,39.20
2023-12-09T14:04:36.483Z,35.05
2023-12-09T14:07:40.777Z,40.20
2023-12-09T14:11:05.123Z,39.28
2023-12-09T14:14:10.578Z,44.50
2023-12-09T14:17:16.416Z,42.13
2023-12-09T14:20:21.067Z,42.10
2023-12-09T14:23:27.446Z,38.00
2023-12-09T14:26:35.416Z,41.85
2023-12-09T14:29:38.757Z,47.55
2023-12-09T14:32:46.167Z,41.67
2023-12-09T14:35:49.848Z,42.67
2023-12-09T14:38:53.261Z,38.20
2023-12-09T14:41:58.904Z,51.35
2023-12-09T14:45:21.815Z,52.47
2023-12-09T14:48:31.110Z,45.83
2023-12-09T14:51:44.159Z,37.47
2023-12-09T14:55:09.005Z,51.05
2023-12-09T14:58:32.473Z,53.75
2023-12-09T15:01:35.909Z,55.30
2023-12-09T15:04:42.721Z,47.00
2023-12-09T15:10:54.675Z,65.18
2023-12-09T15:14:00.138Z,59.08
2023-12-09T15:17:03.032Z,52.45
2023-12-09T15:20:10.638Z,51.40
2023-12-09T15:23:37.498Z,55.00
2023-12-09T15:27:01.929Z,48.45
2023-12-09T15:30:08.246Z,51.00
2023-12-09T15:33:11.362Z,43.65
2023-12-09T15:36:17.173Z,44.28
2023-12-09T15:39:40.774Z,44.75
2023-12-09T15:42:45.818Z,45.45
2023-12-09T15:45:49.124Z,49.03
2023-12-09T15:48:55.370Z,44.75
2023-12-09T15:52:21.280Z,41.47
2023-12-09T15:55:24.985Z,50.70
2023-12-09T15:58:32.862Z,44.28
2023-12-09T16:01:36.892Z,44.42
2023-12-09T16:04:42.601Z,50.15
2023-12-09T16:07:45.780Z,44.45
2023-12-09T16:10:50.609Z,47.50
2023-12-09T16:13:54.165Z,51.58
2023-12-09T16:16:57.392Z,51.15
2023-12-09T16:20:03.916Z,46.75
2023-12-09T16:23:09.247Z,45.97
2023-12-09T16:26:15.024Z,45.12
2023-12-09T16:29:21.128Z,45.40
2023-12-09T16:32:24.134Z,44.75
2023-12-09T16:35:36.474Z,47.83
2023-12-09T16:38:41.668Z,46.08
2023-12-09T16:41:49.597Z,43.78
2023-12-09T16:44:52.271Z,53.05
2023-12-09T16:47:57.839Z,47.55
2023-12-09T16:51:03.940Z,47.88
2023-12-09T16:55:04.631Z,49.60
2023-12-09T16:58:11.349Z,51.95
2023-12-09T17:01:16.676Z,51.35
2023-12-09T17:04:20.197Z,49.88
2023-12-09T17:07:26.287Z,50.28
2023-12-09T17:10:34.025Z,48.33
2023-12-09T17:13:39.256Z,48.50
2023-12-09T17:16:46.637Z,44.10
2023-12-09T17:20:10.565Z,41.88
2023-12-09T17:23:17.325Z,46.58
2023-12-09T17:26:20.305Z,43.78
2023-12-09T17:29:28.178Z,47.58
2023-12-09T17:32:31.330Z,49.13
2023-12-09T17:35:37.369Z,48.20
2023-12-09T17:38:42.745Z,36.20
2023-12-09T17:41:48.063Z,44.63
2023-12-09T17:44:52.868Z,39.15
2023-12-09T17:48:17.274Z,33.10
2023-12-09T17:51:22.382Z,38.88
2023-12-09T17:54:28.404Z,39.08
2023-12-09T17:57:34.323Z,37.72
2023-12-09T18:00:39.698Z,47.28
2023-12-09T18:03:43.556Z,43.47
2023-12-09T18:06:46.771Z,42.80
2023-12-09T18:09:50.786Z,43.33
2023-12-09T18:12:53.811Z,36.40
2023-12-09T18:15:59.037Z,43.95
2023-12-09T18:19:03.014Z,49.60
2023-12-09T18:22:10.109Z,47.58
2023-12-09T18:25:15.281Z,49.78
2023-12-09T18:31:25.135Z,40.63
2023-12-09T18:34:28.834Z,38.95
2023-12-09T18:37:36.574Z,43.50
2023-12-09T18:40:39.838Z,38.05
2023-12-09T18:43:45.571Z,45.00
2023-12-09T18:46:49.921Z,40.72
2023-12-09T18:49:56.070Z,47.33
2023-12-09T18:52:59.723Z,41.33
2023-12-09T18:56:05.499Z,37.88
2023-12-09T18:59:08.826Z,41.28
2023-12-09T19:02:15.896Z,46.00
2023-12-09T19:05:51.777Z,44.60
2023-12-09T19:08:55.521Z,48.78
2023-12-09T19:12:01.195Z,49.75
2023-12-09T19:15:33.949Z,53.75
2023-12-09T19:18:43.711Z,54.13
2023-12-09T19:25:49.540Z,46.72
2023-12-09T19:28:53.577Z,41.90
2023-12-09T19:36:25.982Z,41.67
2023-12-09T19:39:33.824Z,40.97
2023-12-09T19:42:39.142Z,44.75
2023-12-09T19:45:44.870Z,42.35
2023-12-09T19:48:48.140Z,41.45
2023-12-09T19:51:53.926Z,40.58
2023-12-09T19:54:57.454Z,41.90
2023-12-09T20:01:13.244Z,41.85
2023-12-09T20:04:28.955Z,44.55
2023-12-09T20:07:32.408Z,49.80
2023-12-09T20:10:54.000Z,47.13
2023-12-09T20:13:58.539Z,42.10
2023-12-09T20:17:01.858Z,41.28
2023-12-09T20:20:09.854Z,47.88
2023-12-09T20:23:19.512Z,35.40
2023-12-09T20:26:43.235Z,37.42
2023-12-09T20:29:46.680Z,36.88
2023-12-09T20:32:50.368Z,41.75
2023-12-09T20:40:37.412Z,50.17
2023-12-09T20:48:31.771Z,42.85
2023-12-09T20:55:29.532Z,50.63
2023-12-09T20:58:36.494Z,49.78
2023-12-09T21:06:16.092Z,51.58
2023-12-09T21:09:28.760Z,53.38
2023-12-09T21:12:31.690Z,50.72
2023-12-09T21:15:39.241Z,53.17
2023-12-09T21:18:45.574Z,50.60
2023-12-09T21:21:48.769Z,42.85
2023-12-09T21:25:02.862Z,40.35
2023-12-09T21:28:16.998Z,56.78
2023-12-09T21:31:19.996Z,46.47
2023-12-09T21:34:31.646Z,43.92
2023-12-09T21:37:40.425Z,43.92
2023-12-09T21:41:24.317Z,43.72
2023-12-09T21:44:49.077Z,52.45
2023-12-09T21:48:17.126Z,38.40
2023-12-09T21:51:21.803Z,41.03
2023-12-09T21:54:25.792Z,50.00
2023-12-09T21:57:30.655Z,43.05
2023-12-09T22:00:36.927Z,46.42
2023-12-09T22:03:45.646Z,47.38
2023-12-09T22:06:48.719Z,51.80
2023-12-09T22:09:52.699Z,45.28
2023-12-09T22:13:18.805Z,46.83
2023-12-09T22:16:23.282Z,45.95
2023-12-09T22:19:49.029Z,47.88
2023-12-09T22:22:55.458Z,50.38
2023-12-09T22:29:03.731Z,48.70
2023-12-09T22:32:08.724Z,50.72
2023-12-09T22:35:12.115Z,49.93
2023-12-09T22:38:15.587Z,48.47
2023-12-09T22:41:25.522Z,54.90
2023-12-09T22:44:48.911Z,51.05
2023-12-09T22:47:52.872Z,52.53
2023-12-09T22:50:57.247Z,56.45
2023-12-09T22:54:00.541Z,43.25
2023-12-09T23:00:33.972Z,60.97
2023-12-09T23:03:39.203Z,49.40
2023-12-09T23:06:43.611Z,51.17
2023-12-09T23:09:46.709Z,52.80
2023-12-09T23:12:51.964Z,44.97
2023-12-09T23:15:54.702Z,43.92
2023-12-09T23:19:00.068Z,41.42
2023-12-09T23:22:03.522Z,38.20
2023-12-09T23:25:07.600Z,41.03
2023-12-09T23:28:12.954Z,48.03
2023-12-09T23:31:22.494Z,42.15
2023-12-09T23:34:31.603Z,51.70
2023-12-09T23:37:35.616Z,49.28
2023-12-09T23:40:42.765Z,40.88
2023-12-09T23:43:46.223Z,44.08
2023-12-09T23:46:50.875Z,55.05
2023-12-09T23:49:55.785Z,52.08
2023-12-09T23:52:59.245Z,46.33
2023-12-09T23:56:04.588Z,51.45
2023-12-09T23:59:07.748Z,44.38
